Time;durP1;ratioP1;P1;durP2;ratioP2;P2;SDS_P1;SDS_P2;PMS_P1;PMS_P2;Temp;Humidity;BMP_temperature;BMP_pressure;BME280_temperature;BME280_humidity;BME280_pressure;Samples;Min_cycle;Max_cycle;Signal;HPM_P1;HPM_P2
2023/07/09 00:02:23;;;;;;;12.02;6.30;;;23.70;99.90;;;;;;7255645;19;20188;-76
2023/07/09 00:04:49;;;;;;;10.13;5.57;;;23.70;99.90;;;;;;7295005;19;20260;-76
2023/07/09 00:07:28;;;;;;;12.52;6.00;;;23.60;99.90;;;;;;7291710;19;20703;-76
2023/07/09 00:09:55;;;;;;;12.43;6.60;;;23.60;99.90;;;;;;7173460;19;2005061;-77
2023/07/09 00:12:21;;;;;;;10.80;5.85;;;23.60;99.90;;;;;;7277885;19;20192;-75
2023/07/09 00:14:47;;;;;;;14.73;6.43;;;23.70;99.90;;;;;;7302653;19;20662;-76
2023/07/09 00:17:25;;;;;;;13.38;7.03;;;23.60;99.90;;;;;;7283750;19;20272;-76
2023/07/09 00:19:51;;;;;;;11.90;6.30;;;23.50;99.90;;;;;;7261014;19;20807;-76
2023/07/09 00:22:19;;;;;;;11.82;6.18;;;23.50;99.90;;;;;;7304508;19;20215;-76
2023/07/09 00:24:47;;;;;;;12.32;6.03;;;23.40;99.90;;;;;;7283802;19;20191;-75
2023/07/09 00:27:14;;;;;;;11.63;5.95;;;23.50;99.90;;;;;;7284675;19;20193;-76
2023/07/09 00:29:41;;;;;;;11.48;6.72;;;23.50;99.90;;;;;;7283803;19;20243;-76
2023/07/09 00:32:20;;;;;;;13.05;6.50;;;23.40;99.90;;;;;;7283493;19;20229;-76
2023/07/09 00:34:49;;;;;;;11.90;6.32;;;23.20;99.90;;;;;;7283677;19;20196;-75
2023/07/09 00:37:21;;;;;;;11.57;6.32;;;23.10;99.90;;;;;;7284724;19;20185;-77
2023/07/09 00:39:49;;;;;;;13.23;6.18;;;23.10;99.90;;;;;;7283715;19;20251;-76
2023/07/09 00:42:17;;;;;;;12.63;6.40;;;23.20;99.90;;;;;;7284216;19;20177;-75
2023/07/09 00:44:54;;;;;;;14.45;6.05;;;23.30;99.90;;;;;;7282655;19;20212;-75
2023/07/09 00:47:35;;;;;;;12.90;6.22;;;23.30;99.90;;;;;;7266673;19;20188;-75
2023/07/09 00:50:10;;;;;;;14.02;6.28;;;23.30;99.90;;;;;;7283238;19;20200;-76
2023/07/09 00:52:58;;;;;;;13.80;6.38;;;23.20;99.90;;;;;;7283145;19;20188;-76
2023/07/09 00:55:28;;;;;;;11.05;6.30;;;23.20;99.90;;;;;;7179503;19;2006063;-77
2023/07/09 00:58:01;;;;;;;12.77;6.50;;;23.30;99.90;;;;;;7281428;19;20185;-76
2023/07/09 01:00:48;;;;;;;11.75;6.65;;;23.30;99.90;;;;;;7283309;19;20204;-76
2023/07/09 01:03:33;;;;;;;10.48;6.15;;;23.30;99.90;;;;;;7281916;19;20188;-75
2023/07/09 01:05:59;;;;;;;10.68;6.07;;;23.40;99.90;;;;;;7179992;19;2004554;-76
2023/07/09 01:08:30;;;;;;;12.25;6.50;;;23.40;99.90;;;;;;7281827;19;20185;-76
2023/07/09 01:10:58;;;;;;;13.07;6.07;;;23.40;99.90;;;;;;7281360;19;20264;-76
2023/07/09 01:13:26;;;;;;;12.07;6.25;;;23.40;99.90;;;;;;7281858;19;20181;-76
2023/07/09 01:15:53;;;;;;;13.60;6.30;;;23.40;99.90;;;;;;7280841;19;20288;-76
2023/07/09 01:18:21;;;;;;;14.52;6.38;;;23.40;99.90;;;;;;7297556;19;20772;-76
2023/07/09 01:20:47;;;;;;;11.73;5.97;;;23.60;99.90;;;;;;7302927;19;20652;-76
2023/07/09 01:23:14;;;;;;;12.68;5.95;;;23.60;99.90;;;;;;7281608;19;20568;-77
2023/07/09 01:25:52;;;;;;;11.50;5.88;;;23.50;99.90;;;;;;7278740;19;20269;-76
2023/07/09 01:28:20;;;;;;;11.48;5.93;;;23.60;99.90;;;;;;7280160;19;20690;-76
2023/07/09 01:30:49;;;;;;;13.35;6.03;;;23.70;99.90;;;;;;7302900;19;20207;-76
2023/07/09 01:33:14;;;;;;;10.68;6.22;;;23.80;99.90;;;;;;7280381;19;20180;-77
2023/07/09 01:35:41;;;;;;;13.25;5.97;;;23.80;99.90;;;;;;7282058;19;20189;-76
2023/07/09 01:38:08;;;;;;;11.75;6.10;;;23.80;99.90;;;;;;7281654;19;20648;-77
2023/07/09 01:40:35;;;;;;;9.60;5.22;;;23.80;99.90;;;;;;7281721;19;20192;-76
2023/07/09 01:43:06;;;;;;;12.57;5.30;;;23.80;99.90;;;;;;7279895;19;20222;-76
2023/07/09 01:45:34;;;;;;;10.38;5.07;;;23.80;99.90;;;;;;7279875;19;20184;-76
2023/07/09 01:48:00;;;;;;;10.98;5.53;;;23.90;99.90;;;;;;7280531;19;20261;-76
2023/07/09 01:50:26;;;;;;;9.75;5.05;;;23.90;99.90;;;;;;7281162;19;21063;-76
2023/07/09 01:52:53;;;;;;;11.35;5.35;;;23.90;99.90;;;;;;7279294;19;20480;-76
2023/07/09 01:55:19;;;;;;;13.20;5.25;;;23.90;99.90;;;;;;7302320;19;20647;-76
2023/07/09 01:57:45;;;;;;;13.02;5.40;;;23.90;99.90;;;;;;7293265;19;20189;-76
2023/07/09 02:00:14;;;;;;;11.43;5.05;;;23.80;99.90;;;;;;7281260;19;20232;-76
2023/07/09 02:02:44;;;;;;;11.85;5.18;;;23.90;99.90;;;;;;7280064;19;20213;-76
2023/07/09 02:05:12;;;;;;;9.90;4.93;;;23.80;99.90;;;;;;7280691;19;20194;-76
2023/07/09 02:07:38;;;;;;;13.13;5.35;;;23.90;99.90;;;;;;7280236;19;20197;-77
2023/07/09 02:10:05;;;;;;;10.65;5.32;;;23.90;99.90;;;;;;7280538;19;20222;-76
2023/07/09 02:12:31;;;;;;;9.70;5.00;;;23.90;99.90;;;;;;7281873;19;20192;-76
2023/07/09 02:14:57;;;;;;;12.77;5.70;;;23.80;99.90;;;;;;7279826;19;20222;-75
2023/07/09 02:17:23;;;;;;;13.82;6.25;;;23.80;99.90;;;;;;7281068;19;20689;-76
2023/07/09 02:19:51;;;;;;;14.20;5.90;;;23.80;99.90;;;;;;7301061;19;20204;-76
2023/07/09 02:22:19;;;;;;;12.73;5.70;;;23.80;99.90;;;;;;7288788;19;20610;-76
2023/07/09 02:24:44;;;;;;;11.82;6.13;;;23.80;99.90;;;;;;7281410;19;20255;-76
2023/07/09 02:27:13;;;;;;;15.32;6.05;;;23.80;99.90;;;;;;7281024;19;20293;-76
2023/07/09 02:29:39;;;;;;;14.48;6.72;;;23.80;99.90;;;;;;7279919;19;20209;-76
2023/07/09 02:32:05;;;;;;;13.10;6.25;;;23.80;99.90;;;;;;7281106;19;20189;-76
2023/07/09 02:34:31;;;;;;;14.23;6.72;;;23.80;99.90;;;;;;7280339;19;20192;-76
2023/07/09 02:36:58;;;;;;;13.55;5.97;;;23.80;99.90;;;;;;7279382;19;20259;-76
2023/07/09 02:39:25;;;;;;;13.07;6.10;;;23.90;99.90;;;;;;7279529;19;20555;-75
2023/07/09 02:41:51;;;;;;;15.65;6.85;;;23.90;99.90;;;;;;7301026;19;20172;-76
2023/07/09 02:44:18;;;;;;;16.20;6.35;;;23.80;99.90;;;;;;7279664;19;20199;-75
2023/07/09 02:46:44;;;;;;;12.60;6.00;;;23.80;99.90;;;;;;7279222;19;20197;-75
2023/07/09 02:49:13;;;;;;;14.90;6.60;;;23.80;99.90;;;;;;7278264;19;20197;-76
2023/07/09 02:51:39;;;;;;;13.50;6.03;;;23.80;99.90;;;;;;7280291;19;20570;-75
2023/07/09 02:54:05;;;;;;;12.75;5.78;;;23.70;99.90;;;;;;7280087;19;20197;-76
2023/07/09 02:56:31;;;;;;;11.70;5.78;;;23.70;99.90;;;;;;7280202;19;20192;-75
2023/07/09 02:58:57;;;;;;;12.02;6.05;;;23.70;99.90;;;;;;7278223;19;20793;-76
2023/07/09 03:01:27;;;;;;;14.23;6.10;;;23.60;99.90;;;;;;7278937;19;20201;-76
2023/07/09 03:03:58;;;;;;;13.40;6.00;;;23.60;99.90;;;;;;7281279;19;20208;-75
2023/07/09 03:06:24;;;;;;;14.40;6.15;;;23.70;99.90;;;;;;7278934;19;20193;-76
2023/07/09 03:08:51;;;;;;;13.25;5.80;;;23.70;99.90;;;;;;7300903;19;20184;-76
2023/07/09 03:11:18;;;;;;;14.20;6.03;;;23.70;99.90;;;;;;7279318;19;20202;-76
2023/07/09 03:13:44;;;;;;;12.43;6.05;;;23.70;99.90;;;;;;7278940;19;20206;-76
2023/07/09 03:16:10;;;;;;;13.20;5.78;;;23.80;99.90;;;;;;7278108;19;20201;-77
2023/07/09 03:18:36;;;;;;;13.27;5.82;;;23.70;99.90;;;;;;7278953;19;20585;-77
2023/07/09 03:21:01;;;;;;;13.60;6.20;;;23.60;99.90;;;;;;7278622;19;20204;-77
2023/07/09 03:23:27;;;;;;;11.15;5.60;;;23.60;99.90;;;;;;7279400;19;20193;-76
2023/07/09 03:25:54;;;;;;;12.05;5.40;;;23.60;99.90;;;;;;7282708;19;20192;-77
2023/07/09 03:28:19;;;;;;;13.20;6.13;;;23.70;99.90;;;;;;7300515;19;20188;-76
2023/07/09 03:30:47;;;;;;;11.95;5.75;;;23.70;99.90;;;;;;7279271;19;20197;-76
2023/07/09 03:33:14;;;;;;;12.35;5.93;;;23.80;99.90;;;;;;7279056;19;20186;-76
2023/07/09 03:35:40;;;;;;;14.80;6.00;;;23.80;99.90;;;;;;7277202;19;20200;-75
2023/07/09 03:38:08;;;;;;;11.95;5.75;;;23.80;99.90;;;;;;7279335;19;20561;-76
2023/07/09 03:40:34;;;;;;;11.32;5.78;;;23.80;99.90;;;;;;7281005;19;20652;-75
2023/07/09 03:43:00;;;;;;;12.35;6.15;;;23.80;99.90;;;;;;7283889;19;20276;-75
2023/07/09 03:45:25;;;;;;;12.07;5.93;;;23.70;99.90;;;;;;7285527;19;20212;-75
2023/07/09 03:47:51;;;;;;;14.05;6.05;;;23.70;99.90;;;;;;7304519;19;20193;-75
2023/07/09 03:50:18;;;;;;;12.20;5.82;;;23.70;99.90;;;;;;7299570;19;20224;-75
2023/07/09 03:52:43;;;;;;;13.82;6.20;;;23.70;99.90;;;;;;7286000;19;20197;-77
2023/07/09 03:55:09;;;;;;;12.63;6.22;;;23.70;99.90;;;;;;7283912;19;20207;-77
2023/07/09 03:57:35;;;;;;;13.52;5.50;;;23.60;99.90;;;;;;7285689;19;20203;-77
2023/07/09 04:00:04;;;;;;;16.42;6.07;;;23.60;99.90;;;;;;7286068;19;20846;-75
2023/07/09 04:02:43;;;;;;;14.45;6.10;;;23.60;99.90;;;;;;7283258;19;20220;-76
2023/07/09 04:05:10;;;;;;;11.93;6.30;;;23.70;99.90;;;;;;7284874;19;20185;-77
2023/07/09 04:07:36;;;;;;;15.65;6.18;;;23.70;99.90;;;;;;7286073;19;20193;-76
2023/07/09 04:10:01;;;;;;;14.95;6.60;;;23.70;99.90;;;;;;7284289;19;20188;-76
2023/07/09 04:12:27;;;;;;;11.90;5.90;;;23.70;99.90;;;;;;7286026;19;20189;-76
2023/07/09 04:14:53;;;;;;;12.70;6.13;;;23.70;99.90;;;;;;7286744;19;20240;-76
2023/07/09 04:17:19;;;;;;;12.93;6.50;;;23.70;99.90;;;;;;7306027;19;20216;-75
2023/07/09 04:19:44;;;;;;;12.35;6.05;;;23.70;99.90;;;;;;7284027;19;20233;-76
2023/07/09 04:22:13;;;;;;;12.18;6.00;;;23.70;99.90;;;;;;7283966;19;20188;-76
2023/07/09 04:24:39;;;;;;;12.32;5.95;;;23.60;99.90;;;;;;7283047;19;20268;-76
2023/07/09 04:27:05;;;;;;;11.85;6.47;;;23.70;99.90;;;;;;7284193;19;20261;-75
2023/07/09 04:29:33;;;;;;;13.70;6.65;;;23.70;99.90;;;;;;7284426;19;20215;-76
2023/07/09 04:31:59;;;;;;;16.88;6.25;;;23.80;99.90;;;;;;7284101;19;20575;-76
2023/07/09 04:34:25;;;;;;;14.27;6.82;;;23.80;99.90;;;;;;7282143;19;20185;-76
2023/07/09 04:36:51;;;;;;;13.60;6.68;;;23.90;99.90;;;;;;7305603;19;20715;-76
2023/07/09 04:39:16;;;;;;;11.93;6.18;;;24.00;99.90;;;;;;7284395;19;20295;-76
2023/07/09 04:41:43;;;;;;;13.50;6.03;;;24.20;99.90;;;;;;7284535;19;20197;-76
2023/07/09 04:44:08;;;;;;;11.90;6.07;;;24.30;99.90;;;;;;7284465;19;20200;-76
2023/07/09 04:46:34;;;;;;;13.20;5.50;;;24.40;99.90;;;;;;7283232;19;20192;-76
2023/07/09 04:49:00;;;;;;;12.68;6.18;;;24.40;99.90;;;;;;7283589;19;20196;-76
2023/07/09 04:51:26;;;;;;;13.68;6.45;;;24.40;99.90;;;;;;7282785;19;20645;-76
2023/07/09 04:53:52;;;;;;;14.18;5.78;;;24.40;99.90;;;;;;7294798;19;20301;-77
2023/07/09 04:56:18;;;;;;;11.15;5.88;;;24.60;99.90;;;;;;7299594;19;20268;-77
2023/07/09 04:58:44;;;;;;;13.43;6.00;;;24.90;99.90;;;;;;7282451;19;20211;-77
2023/07/09 05:01:10;;;;;;;10.82;5.90;;;25.60;99.90;;;;;;7282726;19;20762;-77
2023/07/09 05:03:36;;;;;;;12.48;5.47;;;26.40;99.90;;;;;;7281778;19;20192;-77
2023/07/09 05:06:03;;;;;;;13.98;6.30;;;27.20;99.90;;;;;;7281619;19;20208;-77
2023/07/09 05:08:28;;;;;;;12.38;5.45;;;27.70;99.90;;;;;;7283200;19;20193;-77
2023/07/09 05:10:57;;;;;;;11.20;5.88;;;27.70;99.90;;;;;;7283063;19;20188;-76
2023/07/09 05:13:23;;;;;;;13.60;5.63;;;27.50;99.90;;;;;;7287722;19;20189;-76
2023/07/09 05:15:50;;;;;;;13.35;5.45;;;27.70;99.90;;;;;;7305049;19;20188;-77
2023/07/09 05:18:17;;;;;;;13.10;5.47;;;28.10;99.90;;;;;;7282611;19;20536;-77
2023/07/09 05:20:43;;;;;;;11.82;5.88;;;28.60;99.90;;;;;;7283904;19;20174;-77
2023/07/09 05:23:10;;;;;;;13.10;5.63;;;29.40;99.90;;;;;;7282015;19;20215;-77
2023/07/09 05:25:36;;;;;;;12.82;5.80;;;30.00;99.90;;;;;;7281987;19;20264;-77
2023/07/09 05:28:02;;;;;;;10.38;5.30;;;30.90;99.90;;;;;;7282223;19;20189;-77
2023/07/09 05:30:28;;;;;;;10.13;5.18;;;31.50;99.90;;;;;;7283259;19;20295;-76
2023/07/09 05:32:57;;;;;;;11.20;5.43;;;32.00;99.90;;;;;;7281800;19;20189;-76
2023/07/09 05:35:25;;;;;;;11.98;5.50;;;32.40;99.90;;;;;;7287536;19;20185;-76
2023/07/09 05:37:52;;;;;;;13.80;5.13;;;32.20;99.90;;;;;;7304995;19;20184;-75
2023/07/09 05:40:18;;;;;;;13.77;5.50;;;32.20;99.90;;;;;;7283063;19;20189;-76
2023/07/09 05:42:43;;;;;;;12.07;5.43;;;32.70;99.90;;;;;;7283841;19;20204;-75
2023/07/09 05:45:10;;;;;;;11.43;5.38;;;33.30;99.90;;;;;;7283368;19;20188;-75
2023/07/09 05:47:36;;;;;;;14.20;5.93;;;33.70;99.90;;;;;;7281759;19;20185;-76
2023/07/09 05:50:03;;;;;;;18.17;6.50;;;34.20;99.90;;;;;;7282841;19;20200;-76
2023/07/09 05:52:29;;;;;;;12.05;6.07;;;34.50;99.90;;;;;;7281401;19;20672;-76
2023/07/09 05:54:55;;;;;;;13.40;5.75;;;34.50;99.90;;;;;;7278961;19;20280;-76
2023/07/09 05:57:21;;;;;;;14.77;5.95;;;34.70;99.90;;;;;;7304141;19;20554;-75
2023/07/09 05:59:47;;;;;;;11.88;5.72;;;35.10;99.90;;;;;;7281527;19;20652;-76
2023/07/09 06:02:14;;;;;;;13.27;6.25;;;35.40;99.90;;;;;;7281077;19;20583;-75
2023/07/09 06:04:41;;;;;;;13.85;5.68;;;35.40;99.90;;;;;;7282026;19;20221;-75
2023/07/09 06:07:08;;;;;;;11.52;5.25;;;35.60;99.90;;;;;;7281383;19;20189;-76
2023/07/09 06:09:35;;;;;;;11.95;5.57;;;35.90;99.90;;;;;;7279820;19;20256;-76
2023/07/09 06:12:01;;;;;;;12.77;5.60;;;36.20;99.90;;;;;;7278662;19;20204;-76
2023/07/09 06:14:27;;;;;;;11.13;5.20;;;36.40;99.90;;;;;;7282006;19;20683;-75
2023/07/09 06:16:52;;;;;;;13.77;5.70;;;36.40;99.90;;;;;;7288570;19;20197;-75
2023/07/09 06:19:18;;;;;;;13.98;5.55;;;35.80;99.90;;;;;;7301448;19;20690;-75
2023/07/09 06:21:44;;;;;;;14.70;5.13;;;35.50;99.90;;;;;;7281451;19;20824;-76
2023/07/09 06:24:10;;;;;;;9.98;5.43;;;35.50;99.90;;;;;;7281103;19;20199;-76
2023/07/09 06:26:36;;;;;;;13.65;6.00;;;35.90;99.90;;;;;;7281461;19;20544;-76
2023/07/09 06:29:02;;;;;;;14.15;6.55;;;35.80;99.90;;;;;;7280650;19;20184;-75
2023/07/09 06:31:27;;;;;;;11.60;5.47;;;35.70;99.90;;;;;;7281167;19;20199;-76
2023/07/09 06:33:53;;;;;;;14.00;6.68;;;36.10;99.90;;;;;;7280748;19;20188;-75
2023/07/09 06:36:19;;;;;;;16.58;6.88;;;36.10;99.90;;;;;;7302526;19;20188;-76
2023/07/09 06:38:45;;;;;;;12.55;7.15;;;35.90;99.90;;;;;;7279845;19;20184;-76
2023/07/09 06:41:12;;;;;;;12.55;7.55;;;35.90;99.90;;;;;;7280054;19;20212;-76
2023/07/09 06:43:38;;;;;;;15.27;8.13;;;36.20;99.90;;;;;;7279760;19;20204;-77
2023/07/09 06:46:05;;;;;;;18.40;8.48;;;36.30;99.90;;;;;;7279661;19;20198;-76
2023/07/09 06:48:31;;;;;;;14.38;8.52;;;36.40;99.90;;;;;;7279710;19;20193;-75
2023/07/09 06:50:58;;;;;;;18.17;8.63;;;36.40;99.30;;;;;;7279623;19;20289;-76
2023/07/09 06:53:24;;;;;;;19.63;11.55;;;36.10;99.90;;;;;;7279942;19;20181;-77
2023/07/09 06:55:52;;;;;;;28.02;20.58;;;36.20;99.80;;;;;;7300785;19;20193;-76
2023/07/09 06:58:18;;;;;;;33.08;21.00;;;36.10;99.10;;;;;;7280414;19;20221;-75
2023/07/09 07:00:45;;;;;;;33.85;23.73;;;36.60;98.80;;;;;;7278933;19;20184;-76
2023/07/09 07:03:11;;;;;;;37.20;27.42;;;36.90;97.80;;;;;;7277027;19;20275;-77
2023/07/09 07:05:37;;;;;;;32.72;25.33;;;36.20;97.50;;;;;;7278984;19;20252;-77
2023/07/09 07:08:03;;;;;;;35.72;26.52;;;35.80;99.30;;;;;;7279521;19;20248;-76
2023/07/09 07:10:30;;;;;;;42.35;29.83;;;36.20;99.30;;;;;;7279268;19;20695;-77
2023/07/09 07:12:56;;;;;;;40.08;30.17;;;37.00;98.20;;;;;;7281406;19;20201;-77
2023/07/09 07:15:22;;;;;;;41.60;31.77;;;37.40;97.40;;;;;;7301063;19;20591;-77
2023/07/09 07:17:48;;;;;;;40.20;31.45;;;38.00;96.80;;;;;;7280694;19;20196;-77
2023/07/09 07:20:15;;;;;;;43.60;32.15;;;38.50;95.60;;;;;;7278600;19;20545;-76
2023/07/09 07:22:41;;;;;;;47.03;35.83;;;38.90;94.40;;;;;;7277011;19;20185;-76
2023/07/09 07:25:08;;;;;;;42.60;34.58;;;39.00;92.90;;;;;;7277607;19;20199;-77
2023/07/09 07:27:34;;;;;;;44.72;35.55;;;39.40;91.50;;;;;;7279023;19;20220;-76
2023/07/09 07:30:01;;;;;;;44.28;35.75;;;39.60;90.60;;;;;;7280097;19;20648;-76
2023/07/09 07:32:26;;;;;;;47.95;39.13;;;39.80;89.60;;;;;;7279385;19;20213;-77
2023/07/09 07:34:54;;;;;;;39.72;32.85;;;39.80;88.20;;;;;;7292763;19;20184;-76
2023/07/09 07:37:20;;;;;;;43.00;33.67;;;39.80;88.30;;;;;;7300878;19;20195;-77
2023/07/09 07:39:47;;;;;;;31.83;26.40;;;39.50;85.90;;;;;;7277079;19;20196;-77
2023/07/09 07:42:13;;;;;;;32.58;25.17;;;39.50;84.20;;;;;;7278156;19;20192;-76
2023/07/09 07:44:39;;;;;;;34.30;25.63;;;40.50;81.00;;;;;;7277817;19;20192;-77
2023/07/09 07:47:05;;;;;;;37.17;29.52;;;41.20;78.90;;;;;;7277267;19;20193;-77
2023/07/09 07:49:32;;;;;;;38.55;30.45;;;41.20;77.20;;;;;;7277692;19;20219;-76
2023/07/09 07:51:57;;;;;;;34.92;26.95;;;40.10;79.20;;;;;;7277946;19;20646;-76
2023/07/09 07:54:23;;;;;;;42.28;31.83;;;40.40;79.20;;;;;;7283553;19;20232;-76
2023/07/09 07:56:49;;;;;;;38.92;29.02;;;41.00;77.60;;;;;;7299789;19;20188;-76
2023/07/09 07:59:16;;;;;;;37.05;26.70;;;40.20;78.60;;;;;;7277538;19;20196;-76
2023/07/09 08:01:42;;;;;;;37.63;28.27;;;39.90;77.10;;;;;;7278144;19;20193;-74
2023/07/09 08:04:08;;;;;;;34.20;25.92;;;38.40;77.10;;;;;;7278472;19;20248;-76
2023/07/09 08:06:33;;;;;;;34.97;25.75;;;37.90;81.60;;;;;;7276389;19;20755;-76
2023/07/09 08:08:59;;;;;;;32.15;25.27;;;39.00;80.90;;;;;;7277015;19;20547;-76
2023/07/09 08:11:27;;;;;;;33.75;26.05;;;39.70;78.10;;;;;;7277002;19;20189;-76
2023/07/09 08:13:53;;;;;;;30.95;23.67;;;40.80;76.10;;;;;;7282194;19;20191;-76
2023/07/09 08:16:19;;;;;;;35.10;26.85;;;41.80;74.20;;;;;;7298571;19;20185;-75
2023/07/09 08:18:45;;;;;;;34.00;25.42;;;42.20;71.80;;;;;;7277296;19;20679;-76
2023/07/09 08:21:10;;;;;;;35.33;26.75;;;42.60;70.70;;;;;;7277656;19;20192;-76
2023/07/09 08:23:36;;;;;;;31.92;23.45;;;43.00;68.20;;;;;;7277918;19;20265;-75
2023/07/09 08:26:03;;;;;;;31.42;23.08;;;42.80;69.60;;;;;;7275246;19;20189;-76
2023/07/09 08:28:30;;;;;;;31.75;21.48;;;43.40;66.20;;;;;;7277163;19;20184;-76
2023/07/09 08:30:56;;;;;;;28.48;21.48;;;42.80;68.10;;;;;;7277076;19;20282;-76
2023/07/09 08:33:23;;;;;;;35.65;22.98;;;42.00;67.20;;;;;;7292249;19;20188;-76
2023/07/09 08:35:50;;;;;;;30.17;23.70;;;42.00;69.50;;;;;;7302546;19;20573;-76
2023/07/09 08:38:16;;;;;;;29.42;22.88;;;42.90;66.60;;;;;;7284965;19;20180;-75
2023/07/09 08:40:48;;;;;;;29.35;22.98;;;42.70;66.00;;;;;;7284398;19;20216;-76
2023/07/09 08:43:28;;;;;;;35.92;21.50;;;42.30;66.40;;;;;;7283448;19;20239;-76
2023/07/09 08:46:28;;;;;;;28.85;19.95;;;42.10;67.00;;;;;;7265944;19;20590;-76
2023/07/09 08:48:56;;;;;;;29.38;20.25;;;42.30;66.90;;;;;;7262999;19;20185;-76
2023/07/09 08:51:43;;;;;;;28.45;20.23;;;42.60;66.40;;;;;;7303230;19;20208;-76
2023/07/09 08:54:34;;;;;;;28.08;20.38;;;42.90;64.20;;;;;;7284878;19;20181;-75
2023/07/09 08:57:17;;;;;;;26.25;17.92;;;43.10;64.00;;;;;;7182086;19;2004581;-75
2023/07/09 08:59:44;;;;;;;25.80;18.40;;;43.40;62.30;;;;;;7285454;19;20178;-76
2023/07/09 09:02:47;;;;;;;28.73;18.30;;;43.30;62.80;;;;;;7284172;19;20213;-76
2023/07/09 09:05:19;;;;;;;27.33;18.23;;;43.10;62.40;;;;;;7180250;19;2004721;-76
2023/07/09 09:07:50;;;;;;;23.63;17.25;;;43.10;62.70;;;;;;7282391;19;20181;-75
2023/07/09 09:10:28;;;;;;;23.52;15.63;;;43.80;62.90;;;;;;7282112;19;20189;-76
2023/07/09 09:12:59;;;;;;;23.63;16.63;;;43.80;60.70;;;;;;7261334;19;20240;-75
2023/07/09 09:15:26;;;;;;;20.83;14.18;;;43.10;61.40;;;;;;7280657;19;20252;-76
2023/07/09 09:17:54;;;;;;;20.67;14.45;;;43.00;61.50;;;;;;7302919;19;20192;-76
2023/07/09 09:20:24;;;;;;;21.73;14.50;;;42.90;60.90;;;;;;7282287;19;20181;-75
2023/07/09 09:23:16;;;;;;;22.55;15.23;;;42.40;62.00;;;;;;7281470;19;20652;-76
2023/07/09 09:25:48;;;;;;;19.98;13.10;;;42.10;62.60;;;;;;7180001;19;2004773;-76
2023/07/09 09:28:14;;;;;;;20.60;12.93;;;42.10;63.20;;;;;;7282437;19;21060;-76
2023/07/09 09:30:40;;;;;;;19.90;14.90;;;42.40;64.40;;;;;;7282092;19;20201;-76
2023/07/09 09:33:11;;;;;;;21.80;15.98;;;42.50;61.50;;;;;;7280949;19;20193;-76
2023/07/09 09:35:40;;;;;;;18.95;13.07;;;42.60;61.70;;;;;;7281331;19;20252;-76
2023/07/09 09:38:15;;;;;;;19.75;13.27;;;43.20;62.70;;;;;;7281014;19;20193;-77
2023/07/09 09:40:41;;;;;;;19.50;14.00;;;43.60;62.10;;;;;;7282066;19;20196;-76
2023/07/09 09:43:20;;;;;;;22.63;13.25;;;43.90;61.70;;;;;;7283000;19;20212;-77
2023/07/09 09:45:50;;;;;;;17.92;13.60;;;44.80;61.10;;;;;;7282264;19;20248;-81
2023/07/09 09:48:28;;;;;;;19.42;12.52;;;44.30;59.60;;;;;;7283282;19;20264;-82
2023/07/09 09:51:00;;;;;;;19.85;12.95;;;44.10;60.10;;;;;;7262518;19;20192;-80
2023/07/09 09:53:28;;;;;;;21.33;12.98;;;42.40;63.00;;;;;;7283010;19;20192;-82
2023/07/09 09:55:56;;;;;;;21.20;13.90;;;42.90;63.10;;;;;;7285324;19;20200;-81
2023/07/09 09:58:29;;;;;;;20.23;12.88;;;42.30;63.90;;;;;;7304349;19;20200;-82
2023/07/09 10:00:56;;;;;;;21.52;12.82;;;43.00;62.50;;;;;;7260776;19;20289;-82
2023/07/09 10:03:33;;;;;;;22.15;14.55;;;43.40;62.70;;;;;;7303090;19;20268;-78
2023/07/09 10:06:21;;;;;;;19.83;13.63;;;43.40;62.70;;;;;;7284117;19;20196;-82
2023/07/09 10:09:07;;;;;;;21.67;13.10;;;41.70;63.70;;;;;;7283324;19;20268;-82
2023/07/09 10:11:58;;;;;;;20.90;13.43;;;41.10;65.50;;;;;;7177670;19;2004585;-82
2023/07/09 10:14:58;;;;;;;20.65;13.38;;;40.70;66.20;;;;;;7260588;19;20185;-81
2023/07/09 10:17:32;;;;;;;20.70;14.70;;;40.60;66.40;;;;;;7261082;19;20216;-82
2023/07/09 10:20:21;;;;;;;22.17;13.93;;;39.90;67.00;;;;;;7283640;19;20200;-82
2023/07/09 10:23:02;;;;;;;21.67;13.18;;;38.80;69.10;;;;;;7281588;19;20189;-82
2023/07/09 10:26:05;;;;;;;23.60;12.98;;;37.10;74.90;;;;;;7179844;19;2006537;-81
2023/07/09 10:29:01;;;;;;;20.15;12.05;;;36.80;75.20;;;;;;7179196;19;2004567;-81
2023/07/09 10:31:41;;;;;;;18.48;11.43;;;37.00;74.70;;;;;;7259597;19;20534;-81
2023/07/09 10:34:31;;;;;;;24.33;12.57;;;36.90;75.90;;;;;;7282501;19;20256;-82
2023/07/09 10:37:20;;;;;;;20.00;12.05;;;36.70;76.40;;;;;;7260470;19;20208;-81
2023/07/09 10:39:55;;;;;;;21.83;12.50;;;36.40;75.90;;;;;;7281194;19;20676;-83
2023/07/09 10:42:35;;;;;;;19.75;11.75;;;35.70;76.20;;;;;;7282675;19;20184;-82
2023/07/09 10:45:15;;;;;;;19.48;11.55;;;34.70;78.70;;;;;;7179389;19;2005331;-82
2023/07/09 10:47:44;;;;;;;19.60;10.48;;;34.20;81.10;;;;;;7282894;19;20656;-82
2023/07/09 10:50:28;;;;;;;19.13;10.05;;;33.70;83.60;;;;;;7280578;19;20191;-76
2023/07/09 10:52:58;;;;;;;18.42;11.20;;;33.20;85.40;;;;;;7264665;19;20194;-76
2023/07/09 10:55:32;;;;;;;15.68;9.10;;;33.10;87.30;;;;;;7280792;19;20302;-76
2023/07/09 10:58:16;;;;;;;20.02;9.77;;;33.10;87.90;;;;;;7278177;19;20409;-76
2023/07/09 11:00:42;;;;;;;14.90;8.68;;;32.90;88.30;;;;;;7278777;19;20986;-75
2023/07/09 11:03:18;;;;;;;15.23;8.70;;;32.90;90.10;;;;;;7278805;19;20201;-76
2023/07/09 11:05:46;;;;;;;16.83;7.20;;;32.60;89.30;;;;;;7278242;19;20192;-76
2023/07/09 11:08:30;;;;;;;18.35;8.55;;;32.40;90.40;;;;;;7279166;19;20212;-76
2023/07/09 11:11:00;;;;;;;14.82;7.35;;;32.00;90.70;;;;;;7257887;19;20199;-76
2023/07/09 11:13:40;;;;;;;19.58;7.88;;;31.50;91.70;;;;;;7277989;19;20193;-76
2023/07/09 11:16:11;;;;;;;14.18;7.13;;;31.20;92.20;;;;;;7278574;19;20196;-76
2023/07/09 11:18:37;;;;;;;14.65;6.95;;;31.00;93.10;;;;;;7279149;19;20195;-76
2023/07/09 11:21:15;;;;;;;13.55;7.57;;;30.90;93.10;;;;;;7279002;19;20581;-75
2023/07/09 11:23:59;;;;;;;11.95;6.50;;;30.70;93.70;;;;;;7278661;19;20184;-76
2023/07/09 11:26:33;;;;;;;14.82;7.13;;;30.60;93.90;;;;;;7256600;19;20714;-75
2023/07/09 11:29:01;;;;;;;12.50;6.20;;;30.40;94.60;;;;;;7277586;19;20192;-76
2023/07/09 11:31:30;;;;;;;13.18;6.05;;;30.40;94.70;;;;;;7277508;19;20189;-76
2023/07/09 11:34:13;;;;;;;11.05;6.15;;;30.20;96.10;;;;;;7278056;19;20204;-76
2023/07/09 11:36:48;;;;;;;13.15;6.55;;;30.20;96.00;;;;;;7279238;19;20228;-76
2023/07/09 11:39:36;;;;;;;13.25;6.50;;;30.00;96.00;;;;;;7275904;19;20185;-76
2023/07/09 11:42:02;;;;;;;13.07;6.35;;;29.60;97.00;;;;;;7175226;19;2004777;-76
2023/07/09 11:44:30;;;;;;;11.43;6.15;;;29.10;98.60;;;;;;7278734;19;20909;-76
2023/07/09 11:47:20;;;;;;;13.13;6.10;;;29.30;99.30;;;;;;7277293;19;20189;-76
2023/07/09 11:50:12;;;;;;;12.40;5.72;;;29.50;99.20;;;;;;7278170;19;20283;-77
2023/07/09 11:53:10;;;;;;;11.32;5.90;;;29.60;99.90;;;;;;7174449;19;2004860;-77
2023/07/09 11:55:44;;;;;;;10.73;5.40;;;29.60;99.90;;;;;;7174715;19;2004727;-76
2023/07/09 11:58:17;;;;;;;11.07;5.68;;;29.60;99.90;;;;;;7276980;19;20189;-77
2023/07/09 12:00:50;;;;;;;14.30;5.57;;;29.50;99.90;;;;;;7277754;19;20649;-77
2023/07/09 12:03:29;;;;;;;11.40;5.40;;;29.40;99.90;;;;;;7277322;19;20215;-76
2023/07/09 12:05:59;;;;;;;13.25;5.22;;;29.20;99.90;;;;;;7256304;19;20671;-76
2023/07/09 12:08:34;;;;;;;13.18;5.70;;;29.00;99.90;;;;;;7277780;19;20197;-76
2023/07/09 12:11:00;;;;;;;15.52;5.30;;;28.80;99.90;;;;;;7282994;19;20220;-76
2023/07/09 12:13:25;;;;;;;17.63;5.75;;;28.70;99.90;;;;;;7285739;19;20806;-76
2023/07/09 12:15:51;;;;;;;14.77;6.13;;;28.40;99.90;;;;;;7305918;19;20192;-76
2023/07/09 12:18:17;;;;;;;15.98;5.82;;;28.00;99.90;;;;;;7283001;19;20193;-76
2023/07/09 12:20:53;;;;;;;13.65;5.95;;;27.40;99.90;;;;;;7284222;19;20556;-76
2023/07/09 12:23:29;;;;;;;13.77;6.85;;;27.10;99.90;;;;;;7285174;19;20652;-76
2023/07/09 12:25:54;;;;;;;19.42;8.25;;;27.00;99.90;;;;;;7262565;19;20212;-76
2023/07/09 12:28:22;;;;;;;18.95;7.78;;;26.70;99.90;;;;;;7306948;19;20181;-76
2023/07/09 12:30:49;;;;;;;15.25;7.82;;;26.30;99.90;;;;;;7285030;19;20193;-76
2023/07/09 12:33:33;;;;;;;20.92;8.68;;;25.80;99.90;;;;;;7283396;19;20201;-76
2023/07/09 12:36:01;;;;;;;21.63;9.73;;;25.60;99.90;;;;;;7181307;19;2004435;-77
2023/07/09 12:38:30;;;;;;;17.95;7.72;;;25.50;99.90;;;;;;7283785;19;20644;-76
2023/07/09 12:40:56;;;;;;;17.42;7.78;;;25.10;99.90;;;;;;7283502;19;20193;-75
2023/07/09 12:43:31;;;;;;;17.00;7.97;;;24.30;99.90;;;;;;7306357;19;20756;-76
2023/07/09 12:45:59;;;;;;;18.55;8.15;;;24.00;99.90;;;;;;7260503;19;20260;-76
2023/07/09 12:48:27;;;;;;;15.38;7.97;;;24.00;99.90;;;;;;7284417;19;20188;-75